This is the latest recevied weather packets stored in our database for station/object VE7OTD. If no packets are shown the sender has not sent any weather packets the latest 10 day(s).
| Time | Temp. | Humidity | Pressure | Rain* | Wind** | Luminosity | Snow |
|---|---|---|---|---|---|---|---|
| 1788487809 | 16.67° C | 74% | 1010.6 hPa | 0 mm | - | - | - |
| 1788485980 | 16.67° C | 73% | 1010.5 hPa | 0 mm | - | - | - |
| 1788484165 | 17.78° C | 72% | 1010.5 hPa | 0 mm | - | - | - |
| 1788482350 | 18.33° C | 64% | 1010.3 hPa | 0 mm | - | - | - |
| 1788481344 | 17.78° C | 68% | 1010.3 hPa | 0 mm | - | - | - |
| 1788481196 | 17.22° C | 71% | 1010.3 hPa | 0 mm | - | - | - |
| 1788481050 | 17.78° C | 71% | 1010.4 hPa | 0 mm | - | - | - |
| 1788429697 | 12.22° C | 99% | 1005.7 hPa | 1.02 mm | - | - | - |
| 1788427886 | 12.22° C | 99% | 1005.5 hPa | 0.76 mm | - | - | - |
| 1788426086 | 12.22° C | 99% | 1005.2 hPa | 0.25 mm | - | - | - |
| 1788424269 | 12.22° C | 99% | 1004.9 hPa | 0.25 mm | - | - | - |
| 1788422455 | 12.22° C | 99% | 1004.4 hPa | 0 mm | - | - | - |
| 1788420640 | 11.67° C | 99% | 1003.8 hPa | 0 mm | - | - | - |
| 1788418825 | 12.22° C | 99% | 1003.1 hPa | 0 mm | - | - | - |
| 1788417025 | 12.78° C | 99% | 1003.2 hPa | 0 mm | - | - | - |
| 1788415195 | 13.33° C | 99% | 1002.5 hPa | 0 mm | - | - | - |
| 1788413380 | 13.33° C | 99% | 1002.4 hPa | 0 mm | - | - | - |
| 1788411565 | 13.33° C | 99% | 1002.3 hPa | 1.27 mm | - | - | - |
| 1788409749 | 13.33° C | 99% | 1002.2 hPa | 3.56 mm | - | - | - |
| 1788407950 | 13.33° C | 99% | 1001.8 hPa | 3.3 mm | - | - | - |
| 1788406150 | 13.33° C | 99% | 1001.5 hPa | 1.52 mm | - | - | - |
| 1788404343 | 13.33° C | 99% | 1000.6 hPa | 1.02 mm | - | - | - |
| 1788402544 | 13.33° C | 98% | 1000.7 hPa | 0.76 mm | - | - | - |
| 1788400744 | 13.33° C | 98% | 1000.6 hPa | 1.27 mm | - | - | - |
| 1788398942 | 13.89° C | 99% | 1000.5 hPa | 3.05 mm | - | - | - |
* Rain latest hour (hover to see other rain measurements)
** Current wind speed in m/s (hover to see current wind gust speed)